CCA8185 ZSFZ-ZSSS
Flight info
| Callsign | CCA8185 |
|---|---|
| Flight time | N/A |
| Altitude | 24600 |
| Route | LJG B221 DST/K0828S0950 B221 SHZ G204 JTN |
| Aircraft | B738/L-SDE2E3FGHIRWXY/LB1 |
Departure
| Time | 2026-04-10 08:41 |
|---|---|
| Airport | Fuzhou Changle International Airport (ZSFZ) |
Arrival
| Time | N/A |
|---|---|
| Airport | Shanghai Hongqiao International Airport (ZSSS) |
| Time | Latitude | Longitude | Altitude | Speed | Heading |
|---|---|---|---|---|---|
| 2026-04-10 08:17 | 25.93484 | 119.66882 | 55 ft | 0 kts | 117° |
| 2026-04-10 08:30 | 25.93489 | 119.66871 | 54 ft | 2 kts | 117° |
| 2026-04-10 08:31 | 25.93496 | 119.66856 | 54 ft | 2 kts | 117° |
| 2026-04-10 08:31 | 25.93503 | 119.66842 | 54 ft | 1 kts | 117° |
| 2026-04-10 08:31 | 25.93507 | 119.66832 | 54 ft | 2 kts | 107° |
| 2026-04-10 08:31 | 25.93509 | 119.66815 | 54 ft | 2 kts | 84° |
| 2026-04-10 08:32 | 25.93505 | 119.66799 | 54 ft | 2 kts | 63° |
| 2026-04-10 08:32 | 25.93496 | 119.66786 | 54 ft | 2 kts | 42° |
| 2026-04-10 08:32 | 25.93489 | 119.66780 | 54 ft | 0 kts | 28° |
| 2026-04-10 08:32 | 25.93483 | 119.66777 | 54 ft | 0 kts | 26° |
| 2026-04-10 08:34 | 25.93487 | 119.66779 | 54 ft | 1 kts | 26° |
| 2026-04-10 08:34 | 25.93513 | 119.66793 | 54 ft | 8 kts | 26° |
| 2026-04-10 08:34 | 25.93554 | 119.66816 | 54 ft | 0 kts | 32° |
| 2026-04-10 08:35 | 25.93560 | 119.66821 | 54 ft | 1 kts | 28° |
| 2026-04-10 08:35 | 25.93587 | 119.66819 | 54 ft | 7 kts | 329° |
| 2026-04-10 08:35 | 25.93657 | 119.66787 | 54 ft | 16 kts | 23° |
| 2026-04-10 08:35 | 25.93713 | 119.66818 | 54 ft | 5 kts | 27° |
| 2026-04-10 08:36 | 25.93776 | 119.66853 | 54 ft | 14 kts | 26° |
| 2026-04-10 08:36 | 25.93895 | 119.66919 | 54 ft | 20 kts | 27° |
| 2026-04-10 08:36 | 25.93999 | 119.66979 | 54 ft | 13 kts | 27° |
| 2026-04-10 08:36 | 25.94092 | 119.67033 | 54 ft | 10 kts | 28° |
| 2026-04-10 08:37 | 25.94184 | 119.67083 | 54 ft | 16 kts | 27° |
| 2026-04-10 08:37 | 25.94291 | 119.67144 | 54 ft | 18 kts | 27° |
| 2026-04-10 08:37 | 25.94421 | 119.67217 | 54 ft | 21 kts | 26° |
| 2026-04-10 08:37 | 25.94542 | 119.67284 | 54 ft | 15 kts | 27° |
| 2026-04-10 08:38 | 25.94645 | 119.67342 | 54 ft | 17 kts | 27° |
| 2026-04-10 08:38 | 25.94746 | 119.67402 | 54 ft | 14 kts | 24° |
| 2026-04-10 08:38 | 25.94809 | 119.67400 | 54 ft | 8 kts | 312° |
| 2026-04-10 08:38 | 25.94838 | 119.67345 | 54 ft | 9 kts | 297° |
| 2026-04-10 08:39 | 25.94865 | 119.67287 | 54 ft | 7 kts | 296° |
| 2026-04-10 08:39 | 25.94878 | 119.67258 | 54 ft | 0 kts | 296° |
| 2026-04-10 08:40 | 25.94887 | 119.67237 | 54 ft | 9 kts | 296° |
| 2026-04-10 08:40 | 25.94909 | 119.67164 | 54 ft | 8 kts | 257° |
| 2026-04-10 08:40 | 25.94866 | 119.67124 | 54 ft | 9 kts | 207° |
| 2026-04-10 08:40 | 25.94645 | 119.66999 | 54 ft | 74 kts | 207° |
| 2026-04-10 08:41 | 25.93946 | 119.66606 | 55 ft | 146 kts | 206° |
| 2026-04-10 08:41 | 25.92931 | 119.65982 | 247 ft | 189 kts | 211° |
| 2026-04-10 08:41 | 25.91861 | 119.65199 | 1527 ft | 179 kts | 214° |
| 2026-04-10 08:41 | 25.90797 | 119.64342 | 1902 ft | 204 kts | 226° |
| 2026-04-10 08:42 | 25.90220 | 119.62875 | 2553 ft | 219 kts | 265° |
| 2026-04-10 08:42 | 25.90478 | 119.61202 | 2930 ft | 220 kts | 290° |
| 2026-04-10 08:42 | 25.91271 | 119.59726 | 2975 ft | 223 kts | 308° |
| 2026-04-10 08:42 | 25.92434 | 119.58619 | 2975 ft | 224 kts | 328° |
| 2026-04-10 08:43 | 25.93885 | 119.57945 | 2972 ft | 228 kts | 344° |
| 2026-04-10 08:43 | 25.95493 | 119.57877 | 2969 ft | 232 kts | 11° |
| 2026-04-10 08:43 | 25.96942 | 119.58665 | 2971 ft | 233 kts | 40° |
| 2026-04-10 08:43 | 25.98009 | 119.60040 | 2978 ft | 233 kts | 54° |
| 2026-04-10 08:44 | 25.98987 | 119.61453 | 2964 ft | 231 kts | 44° |
| 2026-04-10 08:44 | 26.00381 | 119.62318 | 2967 ft | 231 kts | 8° |
| 2026-04-10 08:44 | 26.01990 | 119.62301 | 2975 ft | 228 kts | 348° |
| 2026-04-10 08:44 | 26.03612 | 119.61867 | 3136 ft | 254 kts | 341° |
| 2026-04-10 08:45 | 26.05324 | 119.61256 | 3964 ft | 267 kts | 339° |
| 2026-04-10 08:45 | 26.07092 | 119.60581 | 4986 ft | 273 kts | 339° |
| 2026-04-10 08:45 | 26.08865 | 119.59898 | 6092 ft | 274 kts | 339° |
| 2026-04-10 08:45 | 26.10659 | 119.59206 | 7164 ft | 275 kts | 338° |
| 2026-04-10 08:46 | 26.12466 | 119.58511 | 8139 ft | 280 kts | 338° |
| 2026-04-10 08:46 | 26.14303 | 119.57803 | 9058 ft | 282 kts | 338° |
| 2026-04-10 08:46 | 26.16116 | 119.57109 | 9426 ft | 263 kts | 338° |
| 2026-04-10 08:46 | 26.17835 | 119.56451 | 9469 ft | 264 kts | 337° |
| 2026-04-10 08:47 | 26.19660 | 119.55745 | 9914 ft | 288 kts | 339° |
| 2026-04-10 08:47 | 26.21653 | 119.55252 | 10690 ft | 304 kts | 351° |
| 2026-04-10 08:47 | 26.23829 | 119.55600 | 11279 ft | 330 kts | 17° |
| 2026-04-10 08:47 | 26.25903 | 119.56853 | 11867 ft | 350 kts | 30° |
| 2026-04-10 08:48 | 26.27939 | 119.58463 | 12378 ft | 368 kts | 33° |
| 2026-04-10 08:48 | 26.30080 | 119.60188 | 12881 ft | 384 kts | 32° |
| 2026-04-10 08:48 | 26.32324 | 119.61915 | 13357 ft | 400 kts | 30° |
| 2026-04-10 08:48 | 26.34686 | 119.63654 | 13838 ft | 414 kts | 29° |
| 2026-04-10 08:49 | 26.37121 | 119.65394 | 14544 ft | 420 kts | 28° |
| 2026-04-10 08:49 | 26.39617 | 119.67151 | 15241 ft | 426 kts | 28° |
| 2026-04-10 08:49 | 26.42161 | 119.68930 | 15907 ft | 432 kts | 27° |
| 2026-04-10 08:49 | 26.44710 | 119.70710 | 16528 ft | 439 kts | 27° |
| 2026-04-10 08:50 | 26.47337 | 119.72543 | 17141 ft | 446 kts | 27° |
| 2026-04-10 08:50 | 26.50014 | 119.74413 | 17782 ft | 452 kts | 27° |
| 2026-04-10 08:50 | 26.52678 | 119.76278 | 18497 ft | 456 kts | 27° |
| 2026-04-10 08:50 | 26.55380 | 119.78171 | 19122 ft | 461 kts | 27° |
| 2026-04-10 08:51 | 26.58108 | 119.80083 | 19672 ft | 468 kts | 27° |
| 2026-04-10 08:51 | 26.60897 | 119.82038 | 20363 ft | 471 kts | 27° |
| 2026-04-10 08:51 | 26.63689 | 119.83997 | 20920 ft | 477 kts | 27° |
| 2026-04-10 08:51 | 26.66491 | 119.85967 | 21524 ft | 481 kts | 27° |
| 2026-04-10 08:52 | 26.69352 | 119.87979 | 22045 ft | 486 kts | 27° |
| 2026-04-10 08:52 | 26.72188 | 119.89976 | 22631 ft | 490 kts | 27° |
| 2026-04-10 08:52 | 26.75092 | 119.92023 | 23141 ft | 495 kts | 26° |
| 2026-04-10 08:52 | 26.78030 | 119.94096 | 23687 ft | 498 kts | 26° |
| 2026-04-10 08:53 | 26.80966 | 119.96169 | 24177 ft | 504 kts | 26° |
| 2026-04-10 08:53 | 26.83951 | 119.98277 | 24406 ft | 496 kts | 26° |
| 2026-04-10 08:53 | 26.86827 | 120.00322 | 24347 ft | 478 kts | 26° |
| 2026-04-10 08:53 | 26.89572 | 120.02284 | 24290 ft | 460 kts | 26° |
| 2026-04-10 08:54 | 26.92213 | 120.04174 | 24239 ft | 444 kts | 25° |
| 2026-04-10 08:54 | 26.94781 | 120.06010 | 24244 ft | 431 kts | 25° |
| 2026-04-10 08:54 | 26.97316 | 120.07810 | 24255 ft | 432 kts | 25° |
| 2026-04-10 08:54 | 26.99885 | 120.09628 | 24261 ft | 434 kts | 25° |
| 2026-04-10 08:55 | 27.02442 | 120.11432 | 24256 ft | 435 kts | 25° |
| 2026-04-10 08:55 | 27.04991 | 120.13234 | 24252 ft | 433 kts | 25° |
| 2026-04-10 08:55 | 27.07571 | 120.15061 | 24245 ft | 434 kts | 25° |
| 2026-04-10 08:55 | 27.10107 | 120.16859 | 24239 ft | 435 kts | 25° |
| 2026-04-10 08:56 | 27.12659 | 120.18672 | 24235 ft | 434 kts | 25° |
| 2026-04-10 08:56 | 27.15245 | 120.20505 | 24222 ft | 435 kts | 25° |
| 2026-04-10 08:56 | 27.17795 | 120.22304 | 24218 ft | 435 kts | 25° |
| 2026-04-10 08:56 | 27.20373 | 120.24121 | 24208 ft | 434 kts | 25° |
| 2026-04-10 08:57 | 27.22913 | 120.25912 | 24196 ft | 433 kts | 25° |
| 2026-04-10 08:57 | 27.25494 | 120.27733 | 24192 ft | 434 kts | 25° |
| 2026-04-10 08:57 | 27.28023 | 120.29519 | 24190 ft | 433 kts | 25° |
| 2026-04-10 08:57 | 27.30592 | 120.31332 | 24197 ft | 434 kts | 25° |
| 2026-04-10 08:58 | 27.33170 | 120.33155 | 24199 ft | 435 kts | 25° |
| 2026-04-10 08:58 | 27.35733 | 120.34968 | 24202 ft | 435 kts | 25° |
| 2026-04-10 08:58 | 27.38281 | 120.36776 | 24203 ft | 431 kts | 25° |
| 2026-04-10 08:58 | 27.40852 | 120.38602 | 24206 ft | 435 kts | 25° |
| 2026-04-10 08:59 | 27.43430 | 120.40434 | 24209 ft | 433 kts | 25° |
| 2026-04-10 08:59 | 27.45941 | 120.42222 | 24211 ft | 432 kts | 25° |
| 2026-04-10 08:59 | 27.48516 | 120.44054 | 24209 ft | 434 kts | 25° |
| 2026-04-10 08:59 | 27.51060 | 120.45865 | 24209 ft | 434 kts | 25° |
| 2026-04-10 09:00 | 27.53627 | 120.47694 | 24208 ft | 435 kts | 25° |
| 2026-04-10 09:00 | 27.56202 | 120.49528 | 24200 ft | 437 kts | 25° |
| 2026-04-10 09:00 | 27.58752 | 120.51348 | 24198 ft | 433 kts | 25° |
| 2026-04-10 09:00 | 27.61311 | 120.53175 | 24201 ft | 434 kts | 25° |
| 2026-04-10 09:01 | 27.63863 | 120.54997 | 24198 ft | 434 kts | 25° |
| 2026-04-10 09:01 | 27.66430 | 120.56832 | 24197 ft | 434 kts | 26° |
| 2026-04-10 09:01 | 27.68963 | 120.58643 | 24197 ft | 436 kts | 25° |
| 2026-04-10 09:01 | 27.71536 | 120.60463 | 24191 ft | 433 kts | 24° |
| 2026-04-10 09:02 | 27.74175 | 120.62103 | 24196 ft | 429 kts | 18° |
| 2026-04-10 09:02 | 27.76980 | 120.63200 | 24198 ft | 423 kts | 4° |
| 2026-04-10 09:02 | 27.79877 | 120.63726 | 24205 ft | 416 kts | 357° |
| 2026-04-10 09:02 | 27.82730 | 120.64022 | 24207 ft | 413 kts | 355° |
| 2026-04-10 09:03 | 27.85620 | 120.64238 | 24214 ft | 413 kts | 354° |
| 2026-04-10 09:03 | 27.88471 | 120.64430 | 24217 ft | 412 kts | 354° |
| 2026-04-10 09:03 | 27.91391 | 120.64637 | 24222 ft | 412 kts | 354° |
| 2026-04-10 09:04 | 27.97124 | 120.65093 | 24231 ft | 414 kts | 355° |
| 2026-04-10 09:04 | 28.00027 | 120.65344 | 24230 ft | 416 kts | 356° |
| 2026-04-10 09:04 | 28.02892 | 120.65597 | 24233 ft | 415 kts | 356° |
| 2026-04-10 09:04 | 28.05788 | 120.65866 | 24235 ft | 416 kts | 356° |
| 2026-04-10 09:05 | 28.08684 | 120.66146 | 24240 ft | 414 kts | 356° |
| 2026-04-10 09:05 | 28.11575 | 120.66429 | 24243 ft | 417 kts | 356° |
| 2026-04-10 09:05 | 28.14474 | 120.66716 | 24240 ft | 413 kts | 356° |
| 2026-04-10 09:05 | 28.17325 | 120.66997 | 24245 ft | 414 kts | 356° |
| 2026-04-10 09:06 | 28.20229 | 120.67283 | 24250 ft | 415 kts | 356° |
| 2026-04-10 09:06 | 28.23098 | 120.67564 | 24252 ft | 415 kts | 356° |
| 2026-04-10 09:06 | 28.25985 | 120.67850 | 24252 ft | 413 kts | 356° |
| 2026-04-10 09:06 | 28.28890 | 120.68135 | 24256 ft | 416 kts | 356° |
| 2026-04-10 09:07 | 28.31770 | 120.68419 | 24260 ft | 414 kts | 356° |
| 2026-04-10 09:07 | 28.34651 | 120.68707 | 24266 ft | 411 kts | 356° |
| 2026-04-10 09:07 | 28.37525 | 120.68988 | 24269 ft | 413 kts | 356° |
| 2026-04-10 09:07 | 28.40389 | 120.69269 | 24269 ft | 411 kts | 356° |
| 2026-04-10 09:08 | 28.43239 | 120.69549 | 24269 ft | 411 kts | 356° |
| 2026-04-10 09:08 | 28.46108 | 120.69830 | 24273 ft | 413 kts | 356° |
| 2026-04-10 09:08 | 28.48957 | 120.70113 | 24279 ft | 413 kts | 356° |
| 2026-04-10 09:08 | 28.51851 | 120.70403 | 24286 ft | 414 kts | 356° |
| 2026-04-10 09:09 | 28.54730 | 120.70693 | 24286 ft | 411 kts | 356° |
| 2026-04-10 09:09 | 28.57582 | 120.70982 | 24283 ft | 411 kts | 356° |
| 2026-04-10 09:09 | 28.60413 | 120.71267 | 24283 ft | 411 kts | 356° |
| 2026-04-10 09:09 | 28.63281 | 120.71558 | 24280 ft | 413 kts | 356° |
| 2026-04-10 09:10 | 28.66128 | 120.71844 | 24276 ft | 412 kts | 356° |
| 2026-04-10 09:10 | 28.68994 | 120.72133 | 24276 ft | 411 kts | 356° |
| 2026-04-10 09:10 | 28.71885 | 120.72433 | 24272 ft | 413 kts | 356° |
| 2026-04-10 09:10 | 28.74735 | 120.72741 | 24270 ft | 413 kts | 356° |
| 2026-04-10 09:11 | 28.77617 | 120.73061 | 24269 ft | 412 kts | 357° |
| 2026-04-10 09:11 | 28.80482 | 120.73380 | 24272 ft | 410 kts | 356° |
| 2026-04-10 09:11 | 28.83322 | 120.73695 | 24267 ft | 411 kts | 356° |
| 2026-04-10 09:11 | 28.86190 | 120.74013 | 24266 ft | 410 kts | 356° |
| 2026-04-10 09:12 | 28.89029 | 120.74320 | 24266 ft | 409 kts | 356° |
| 2026-04-10 09:12 | 28.91869 | 120.74616 | 24263 ft | 410 kts | 356° |
| 2026-04-10 09:12 | 28.94701 | 120.74907 | 24265 ft | 408 kts | 356° |
| 2026-04-10 09:12 | 28.97560 | 120.75196 | 24261 ft | 412 kts | 356° |
| 2026-04-10 09:13 | 29.00401 | 120.75485 | 24263 ft | 410 kts | 356° |
| 2026-04-10 09:13 | 29.03253 | 120.75779 | 24260 ft | 410 kts | 356° |
| 2026-04-10 09:13 | 29.06086 | 120.76070 | 24255 ft | 409 kts | 356° |
| 2026-04-10 09:13 | 29.08929 | 120.76360 | 24263 ft | 410 kts | 356° |
| 2026-04-10 09:14 | 29.11761 | 120.76653 | 24268 ft | 406 kts | 356° |
| 2026-04-10 09:14 | 29.14608 | 120.76945 | 24265 ft | 407 kts | 356° |
| 2026-04-10 09:14 | 29.17450 | 120.77235 | 24273 ft | 408 kts | 356° |
| 2026-04-10 09:14 | 29.20276 | 120.77525 | 24269 ft | 407 kts | 356° |
| 2026-04-10 09:15 | 29.23110 | 120.77815 | 24261 ft | 409 kts | 356° |
| 2026-04-10 09:15 | 29.25917 | 120.78104 | 24272 ft | 407 kts | 356° |
| 2026-04-10 09:15 | 29.28785 | 120.78401 | 24274 ft | 407 kts | 356° |
| 2026-04-10 09:15 | 29.31620 | 120.78695 | 24148 ft | 410 kts | 356° |
| 2026-04-10 09:16 | 29.34471 | 120.78992 | 23983 ft | 406 kts | 356° |
| 2026-04-10 09:16 | 29.37251 | 120.79283 | 23797 ft | 404 kts | 356° |
| 2026-04-10 09:16 | 29.40063 | 120.79575 | 23618 ft | 403 kts | 356° |
| 2026-04-10 09:16 | 29.42880 | 120.79868 | 23438 ft | 400 kts | 356° |
| 2026-04-10 09:17 | 29.45646 | 120.80158 | 23256 ft | 396 kts | 356° |
| 2026-04-10 09:17 | 29.48393 | 120.80444 | 23085 ft | 396 kts | 356° |
| 2026-04-10 09:17 | 29.51148 | 120.80727 | 22918 ft | 398 kts | 357° |
| 2026-04-10 09:17 | 29.53906 | 120.81014 | 22742 ft | 393 kts | 357° |
| 2026-04-10 09:18 | 29.56632 | 120.81316 | 22544 ft | 391 kts | 359° |
| 2026-04-10 09:18 | 29.59313 | 120.81813 | 22370 ft | 396 kts | 5° |
| 2026-04-10 09:18 | 29.61974 | 120.82779 | 22197 ft | 404 kts | 15° |
| 2026-04-10 09:18 | 29.64565 | 120.84137 | 22005 ft | 407 kts | 20° |
| 2026-04-10 09:19 | 29.67097 | 120.85665 | 21838 ft | 421 kts | 22° |
| 2026-04-10 09:19 | 29.69745 | 120.87324 | 21662 ft | 444 kts | 23° |
| 2026-04-10 09:19 | 29.72514 | 120.89070 | 21488 ft | 451 kts | 23° |
| 2026-04-10 09:19 | 29.75267 | 120.90810 | 21305 ft | 453 kts | 23° |
| 2026-04-10 09:20 | 29.78029 | 120.92549 | 21130 ft | 452 kts | 22° |
| 2026-04-10 09:20 | 29.80791 | 120.94280 | 20954 ft | 451 kts | 22° |
| 2026-04-10 09:20 | 29.83556 | 120.96005 | 20888 ft | 447 kts | 22° |
| 2026-04-10 09:20 | 29.86326 | 120.97728 | 20699 ft | 452 kts | 22° |
| 2026-04-10 09:21 | 29.89077 | 120.99432 | 20239 ft | 448 kts | 22° |
| 2026-04-10 09:21 | 29.91792 | 121.01114 | 19712 ft | 441 kts | 22° |
| 2026-04-10 09:21 | 29.94500 | 121.02791 | 19173 ft | 435 kts | 23° |
| 2026-04-10 09:21 | 29.97148 | 121.04428 | 18638 ft | 429 kts | 23° |
| 2026-04-10 09:22 | 29.99758 | 121.06044 | 18090 ft | 423 kts | 22° |
| 2026-04-10 09:22 | 30.02331 | 121.07639 | 17589 ft | 417 kts | 23° |
| 2026-04-10 09:22 | 30.04866 | 121.09212 | 17065 ft | 411 kts | 23° |
| 2026-04-10 09:22 | 30.07354 | 121.10754 | 16545 ft | 406 kts | 23° |
| 2026-04-10 09:23 | 30.09846 | 121.12301 | 16002 ft | 401 kts | 24° |
| 2026-04-10 09:23 | 30.12258 | 121.13797 | 15502 ft | 396 kts | 24° |
| 2026-04-10 09:23 | 30.14683 | 121.15301 | 14993 ft | 391 kts | 24° |
| 2026-04-10 09:23 | 30.17065 | 121.16778 | 14439 ft | 386 kts | 24° |
| 2026-04-10 09:24 | 30.19443 | 121.18254 | 13913 ft | 382 kts | 24° |
| 2026-04-10 09:24 | 30.21765 | 121.19695 | 13406 ft | 378 kts | 24° |
| 2026-04-10 09:24 | 30.24077 | 121.21123 | 12891 ft | 373 kts | 23° |
| 2026-04-10 09:24 | 30.26417 | 121.22273 | 12348 ft | 365 kts | 13° |
| 2026-04-10 09:25 | 30.28895 | 121.22891 | 11827 ft | 357 kts | 4° |
| 2026-04-10 09:25 | 30.31316 | 121.23189 | 11394 ft | 349 kts | 0° |
| 2026-04-10 09:25 | 30.33736 | 121.23391 | 10943 ft | 342 kts | 0° |
| 2026-04-10 09:25 | 30.36069 | 121.23591 | 10568 ft | 335 kts | 1° |
| 2026-04-10 09:26 | 30.38399 | 121.23830 | 10220 ft | 325 kts | 2° |
| 2026-04-10 09:26 | 30.40589 | 121.24088 | 9834 ft | 312 kts | 2° |
| 2026-04-10 09:26 | 30.42717 | 121.24359 | 9473 ft | 301 kts | 2° |
| 2026-04-10 09:26 | 30.44766 | 121.24628 | 9127 ft | 295 kts | 2° |
| 2026-04-10 09:27 | 30.46803 | 121.24950 | 8774 ft | 292 kts | 5° |
| 2026-04-10 09:27 | 30.48805 | 121.25347 | 8408 ft | 289 kts | 6° |
| 2026-04-10 09:27 | 30.50755 | 121.25757 | 8056 ft | 286 kts | 6° |
| 2026-04-10 09:27 | 30.52717 | 121.26164 | 7664 ft | 283 kts | 6° |
| 2026-04-10 09:28 | 30.54641 | 121.26550 | 7336 ft | 278 kts | 6° |
| 2026-04-10 09:28 | 30.56543 | 121.26926 | 7050 ft | 274 kts | 5° |
| 2026-04-10 09:28 | 30.58394 | 121.27287 | 6744 ft | 270 kts | 6° |
| 2026-04-10 09:28 | 30.60277 | 121.27654 | 6416 ft | 266 kts | 6° |
| 2026-04-10 09:29 | 30.62097 | 121.28010 | 6099 ft | 262 kts | 6° |
| 2026-04-10 09:29 | 30.63879 | 121.28359 | 5783 ft | 259 kts | 6° |
| 2026-04-10 09:29 | 30.65653 | 121.28706 | 5454 ft | 256 kts | 6° |
| 2026-04-10 09:29 | 30.67400 | 121.29049 | 5139 ft | 253 kts | 6° |
| 2026-04-10 09:30 | 30.69132 | 121.29390 | 4822 ft | 250 kts | 6° |
| 2026-04-10 09:30 | 30.70846 | 121.29726 | 4502 ft | 248 kts | 7° |
| 2026-04-10 09:30 | 30.72549 | 121.30061 | 4180 ft | 246 kts | 7° |
| 2026-04-10 09:30 | 30.74210 | 121.30388 | 3859 ft | 236 kts | 7° |
| 2026-04-10 09:31 | 30.75752 | 121.30692 | 3540 ft | 219 kts | 7° |
| 2026-04-10 09:31 | 30.77236 | 121.30984 | 3211 ft | 210 kts | 7° |
| 2026-04-10 09:31 | 30.78686 | 121.31267 | 2899 ft | 210 kts | 8° |
| 2026-04-10 09:31 | 30.80121 | 121.31550 | 2730 ft | 206 kts | 7° |
| 2026-04-10 09:32 | 30.81538 | 121.31828 | 2609 ft | 209 kts | 8° |
| 2026-04-10 09:32 | 30.82991 | 121.32114 | 2481 ft | 208 kts | 8° |
| 2026-04-10 09:32 | 30.84421 | 121.32394 | 2361 ft | 210 kts | 8° |
| 2026-04-10 09:32 | 30.85860 | 121.32679 | 2256 ft | 206 kts | 8° |
| 2026-04-10 09:33 | 30.87277 | 121.32957 | 2180 ft | 209 kts | 8° |
| 2026-04-10 09:33 | 30.88706 | 121.33238 | 2104 ft | 206 kts | 8° |
| 2026-04-10 09:33 | 30.90147 | 121.33525 | 2034 ft | 207 kts | 8° |
| 2026-04-10 09:33 | 30.91567 | 121.33805 | 1945 ft | 207 kts | 8° |
| 2026-04-10 09:34 | 30.93002 | 121.34087 | 1925 ft | 206 kts | 8° |
| 2026-04-10 09:34 | 30.94434 | 121.34370 | 1923 ft | 209 kts | 8° |
| 2026-04-10 09:34 | 30.95822 | 121.34645 | 1914 ft | 191 kts | 8° |
| 2026-04-10 09:34 | 30.97070 | 121.34862 | 1925 ft | 177 kts | 2° |
| 2026-04-10 09:35 | 30.98293 | 121.34840 | 1925 ft | 174 kts | 354° |
| 2026-04-10 09:35 | 30.99501 | 121.34731 | 1923 ft | 172 kts | 355° |
| 2026-04-10 09:35 | 31.00711 | 121.34655 | 1911 ft | 164 kts | 357° |
| 2026-04-10 09:35 | 31.01803 | 121.34629 | 1915 ft | 155 kts | 359° |
| 2026-04-10 09:36 | 31.02882 | 121.34627 | 1924 ft | 153 kts | 358° |
| 2026-04-10 09:36 | 31.03944 | 121.34563 | 1951 ft | 154 kts | 355° |
| 2026-04-10 09:36 | 31.04969 | 121.34466 | 1916 ft | 145 kts | 356° |
| 2026-04-10 09:36 | 31.05953 | 121.34396 | 1922 ft | 138 kts | 356° |
| 2026-04-10 09:37 | 31.06877 | 121.34338 | 1916 ft | 135 kts | 356° |
| 2026-04-10 09:37 | 31.07818 | 121.34279 | 1918 ft | 135 kts | 356° |
| 2026-04-10 09:37 | 31.08733 | 121.34226 | 1858 ft | 129 kts | 356° |
| 2026-04-10 09:37 | 31.09616 | 121.34177 | 1729 ft | 128 kts | 356° |
| 2026-04-10 09:38 | 31.10467 | 121.34126 | 1534 ft | 124 kts | 356° |
| 2026-04-10 09:38 | 31.11300 | 121.34082 | 1398 ft | 125 kts | 357° |
| 2026-04-10 09:38 | 31.12187 | 121.34036 | 1212 ft | 126 kts | 356° |
| 2026-04-10 09:38 | 31.13088 | 121.33983 | 1054 ft | 128 kts | 356° |
| 2026-04-10 09:39 | 31.13967 | 121.33936 | 888 ft | 126 kts | 359° |
| 2026-04-10 09:39 | 31.14854 | 121.33897 | 720 ft | 126 kts | 357° |
| 2026-04-10 09:39 | 31.15737 | 121.33844 | 558 ft | 128 kts | 353° |
| 2026-04-10 09:39 | 31.16620 | 121.33791 | 393 ft | 127 kts | 0° |
| 2026-04-10 09:40 | 31.17512 | 121.33791 | 231 ft | 128 kts | 358° |
| 2026-04-10 09:40 | 31.18414 | 121.33707 | 50 ft | 128 kts | 1° |
| 2026-04-10 09:40 | 31.19251 | 121.33690 | 77 ft | 126 kts | 357° |
| 2026-04-10 09:40 | 31.19995 | 121.33650 | 1218 ft | 89 kts | 356° |
| 2026-04-10 09:41 | 31.20565 | 121.33524 | 1595 ft | 116 kts | 345° |
| 2026-04-10 09:41 | 31.21441 | 121.33546 | 2099 ft | 138 kts | 41° |
| 2026-04-10 09:41 | 31.21272 | 121.34747 | 1856 ft | 199 kts | 128° |
| 2026-04-10 09:41 | 31.20430 | 121.35774 | 2640 ft | 160 kts | 135° |